sensor_id;sensor_type;location;lat;lon;timestamp;pressure;altitude;pressure_sealevel;temperature;humidity
55077;BME280;40971;44.702;11.030;2022-08-25T00:00:28;101364.13;;;19.22;98.19
55077;BME280;40971;44.702;11.030;2022-08-25T00:02:54;101363.56;;;19.08;100.00
55077;BME280;40971;44.702;11.030;2022-08-25T00:05:20;101369.44;;;19.11;100.00
55077;BME280;40971;44.702;11.030;2022-08-25T00:07:45;101368.72;;;19.09;100.00
55077;BME280;40971;44.702;11.030;2022-08-25T00:10:11;101252.88;;;18.46;99.79
55077;BME280;40971;44.702;11.030;2022-08-25T00:12:36;101304.00;;;18.80;98.13
55077;BME280;40971;44.702;11.030;2022-08-25T00:15:03;101364.00;;;19.24;97.51
55077;BME280;40971;44.702;11.030;2022-08-25T00:17:29;101244.13;;;18.56;97.69
55077;BME280;40971;44.702;11.030;2022-08-25T00:19:54;101368.09;;;19.28;97.81
55077;BME280;40971;44.702;11.030;2022-08-25T00:22:20;101364.22;;;19.43;95.51
55077;BME280;40971;44.702;11.030;2022-08-25T00:24:45;101292.19;;;19.06;94.60
55077;BME280;40971;44.702;11.030;2022-08-25T00:27:11;101371.22;;;19.56;95.88
55077;BME280;40971;44.702;11.030;2022-08-25T00:29:37;101376.88;;;19.29;98.02
55077;BME280;40971;44.702;11.030;2022-08-25T00:32:03;101365.84;;;19.01;99.39
55077;BME280;40971;44.702;11.030;2022-08-25T00:34:37;101373.06;;;18.88;100.00
55077;BME280;40971;44.702;11.030;2022-08-25T00:37:05;101368.28;;;18.82;100.00
55077;BME280;40971;44.702;11.030;2022-08-25T00:39:31;101323.78;;;18.65;100.00
55077;BME280;40971;44.702;11.030;2022-08-25T00:41:58;101378.25;;;19.01;100.00
55077;BME280;40971;44.702;11.030;2022-08-25T00:44:25;101372.97;;;19.01;100.00
55077;BME280;40971;44.702;11.030;2022-08-25T00:46:54;101352.63;;;18.90;99.94
55077;BME280;40971;44.702;11.030;2022-08-25T00:49:30;101382.59;;;19.02;100.00
55077;BME280;40971;44.702;11.030;2022-08-25T00:52:00;101314.72;;;18.89;97.14
55077;BME280;40971;44.702;11.030;2022-08-25T00:54:31;101367.50;;;19.24;96.02
55077;BME280;40971;44.702;11.030;2022-08-25T00:56:59;101387.94;;;19.45;95.04
55077;BME280;40971;44.702;11.030;2022-08-25T00:59:26;101319.50;;;19.18;95.84
55077;BME280;40971;44.702;11.030;2022-08-25T01:01:53;101378.03;;;19.47;96.92
55077;BME280;40971;44.702;11.030;2022-08-25T01:04:19;101353.56;;;19.22;97.11
55077;BME280;40971;44.702;11.030;2022-08-25T01:06:47;101342.63;;;19.16;96.79
55077;BME280;40971;44.702;11.030;2022-08-25T01:09:14;101376.03;;;19.28;96.91
55077;BME280;40971;44.702;11.030;2022-08-25T01:11:44;101247.38;;;18.49;97.26
55077;BME280;40971;44.702;11.030;2022-08-25T01:14:11;101378.84;;;19.15;98.68
55077;BME280;40971;44.702;11.030;2022-08-25T01:16:39;101376.69;;;18.98;99.48
55077;BME280;40971;44.702;11.030;2022-08-25T01:19:07;101374.88;;;18.99;99.86
55077;BME280;40971;44.702;11.030;2022-08-25T01:21:40;101352.88;;;18.87;100.00
55077;BME280;40971;44.702;11.030;2022-08-25T01:24:06;101371.38;;;19.20;98.05
55077;BME280;40971;44.702;11.030;2022-08-25T01:26:34;101362.22;;;19.13;98.07
55077;BME280;40971;44.702;11.030;2022-08-25T01:29:02;101365.63;;;19.15;98.38
55077;BME280;40971;44.702;11.030;2022-08-25T01:31:48;101384.25;;;19.14;98.49
55077;BME280;40971;44.702;11.030;2022-08-25T01:34:15;101322.06;;;18.63;99.74
55077;BME280;40971;44.702;11.030;2022-08-25T01:36:42;101383.91;;;18.85;100.00
55077;BME280;40971;44.702;11.030;2022-08-25T01:39:09;101376.78;;;18.74;100.00
55077;BME280;40971;44.702;11.030;2022-08-25T01:44:16;101383.84;;;18.62;100.00
55077;BME280;40971;44.702;11.030;2022-08-25T01:46:42;101378.84;;;18.71;100.00
55077;BME280;40971;44.702;11.030;2022-08-25T01:49:08;101372.66;;;18.59;100.00
55077;BME280;40971;44.702;11.030;2022-08-25T01:51:42;101374.69;;;18.55;100.00
55077;BME280;40971;44.702;11.030;2022-08-25T01:54:08;101331.28;;;18.36;100.00
55077;BME280;40971;44.702;11.030;2022-08-25T01:56:34;101312.50;;;18.27;100.00
55077;BME280;40971;44.702;11.030;2022-08-25T01:59:00;101349.63;;;18.72;100.00
55077;BME280;40971;44.702;11.030;2022-08-25T02:01:26;101363.22;;;18.90;99.30
55077;BME280;40971;44.702;11.030;2022-08-25T02:03:54;101297.50;;;18.39;98.37
55077;BME280;40971;44.702;11.030;2022-08-25T02:06:27;101347.66;;;18.63;98.46
55077;BME280;40971;44.702;11.030;2022-08-25T02:08:55;101355.88;;;18.71;98.62
55077;BME280;40971;44.702;11.030;2022-08-25T02:11:21;101340.56;;;18.63;98.01
55077;BME280;40971;44.702;11.030;2022-08-25T02:13:49;101358.84;;;18.55;98.67
55077;BME280;40971;44.702;11.030;2022-08-25T02:16:19;101370.00;;;18.48;100.00
55077;BME280;40971;44.702;11.030;2022-08-25T02:18:46;101365.25;;;18.29;100.00
55077;BME280;40971;44.702;11.030;2022-08-25T02:21:13;101348.88;;;18.13;100.00
55077;BME280;40971;44.702;11.030;2022-08-25T02:23:39;101364.28;;;18.19;100.00
55077;BME280;40971;44.702;11.030;2022-08-25T02:26:06;101363.91;;;18.12;100.00
55077;BME280;40971;44.702;11.030;2022-08-25T02:28:31;101359.09;;;18.06;100.00
55077;BME280;40971;44.702;11.030;2022-08-25T02:30:57;101313.84;;;17.87;100.00
55077;BME280;40971;44.702;11.030;2022-08-25T02:33:22;101369.94;;;18.25;100.00
55077;BME280;40971;44.702;11.030;2022-08-25T02:35:48;101335.13;;;17.85;100.00
55077;BME280;40971;44.702;11.030;2022-08-25T02:38:13;101281.50;;;17.48;100.00
55077;BME280;40971;44.702;11.030;2022-08-25T02:40:39;101286.56;;;17.51;100.00
55077;BME280;40971;44.702;11.030;2022-08-25T02:43:04;101358.06;;;17.85;100.00
55077;BME280;40971;44.702;11.030;2022-08-25T02:45:30;101350.72;;;17.88;100.00
55077;BME280;40971;44.702;11.030;2022-08-25T02:47:55;101354.16;;;18.01;100.00
55077;BME280;40971;44.702;11.030;2022-08-25T02:50:21;101337.78;;;17.96;100.00
55077;BME280;40971;44.702;11.030;2022-08-25T02:52:47;101348.75;;;18.03;100.00
55077;BME280;40971;44.702;11.030;2022-08-25T02:55:15;101359.72;;;18.21;100.00
55077;BME280;40971;44.702;11.030;2022-08-25T02:57:41;101286.31;;;17.78;100.00
55077;BME280;40971;44.702;11.030;2022-08-25T03:00:09;101294.59;;;17.73;100.00
55077;BME280;40971;44.702;11.030;2022-08-25T03:02:36;101355.00;;;18.13;100.00
55077;BME280;40971;44.702;11.030;2022-08-25T03:05:02;101308.56;;;17.87;100.00
55077;BME280;40971;44.702;11.030;2022-08-25T03:07:28;101356.06;;;17.99;100.00
55077;BME280;40971;44.702;11.030;2022-08-25T03:09:54;101303.00;;;17.55;100.00
55077;BME280;40971;44.702;11.030;2022-08-25T03:12:19;101353.75;;;17.95;100.00
55077;BME280;40971;44.702;11.030;2022-08-25T03:14:46;101242.97;;;17.22;100.00
55077;BME280;40971;44.702;11.030;2022-08-25T03:17:12;101347.59;;;17.83;100.00
55077;BME280;40971;44.702;11.030;2022-08-25T03:19:37;101291.88;;;17.38;100.00
55077;BME280;40971;44.702;11.030;2022-08-25T03:22:03;101356.31;;;17.72;100.00
55077;BME280;40971;44.702;11.030;2022-08-25T03:24:29;101367.53;;;17.87;100.00
55077;BME280;40971;44.702;11.030;2022-08-25T03:26:54;101363.34;;;17.96;100.00
55077;BME280;40971;44.702;11.030;2022-08-25T03:29:25;101361.06;;;17.91;100.00
55077;BME280;40971;44.702;11.030;2022-08-25T03:31:52;101359.31;;;17.79;100.00
55077;BME280;40971;44.702;11.030;2022-08-25T03:34:21;101360.03;;;17.70;100.00
55077;BME280;40971;44.702;11.030;2022-08-25T03:36:49;101286.66;;;17.50;100.00
55077;BME280;40971;44.702;11.030;2022-08-25T03:39:16;101289.06;;;17.53;100.00
55077;BME280;40971;44.702;11.030;2022-08-25T03:41:43;101290.28;;;17.60;100.00
55077;BME280;40971;44.702;11.030;2022-08-25T03:44:09;101357.88;;;17.99;100.00
55077;BME280;40971;44.702;11.030;2022-08-25T03:46:41;101341.16;;;17.98;100.00
55077;BME280;40971;44.702;11.030;2022-08-25T03:49:09;101353.97;;;18.16;100.00
55077;BME280;40971;44.702;11.030;2022-08-25T03:51:42;101357.41;;;18.05;100.00
55077;BME280;40971;44.702;11.030;2022-08-25T03:54:09;101357.22;;;17.95;100.00
55077;BME280;40971;44.702;11.030;2022-08-25T03:56:35;101351.81;;;17.86;100.00
55077;BME280;40971;44.702;11.030;2022-08-25T03:59:00;101341.13;;;17.87;100.00
55077;BME280;40971;44.702;11.030;2022-08-25T04:01:26;101359.75;;;17.97;100.00
55077;BME280;40971;44.702;11.030;2022-08-25T04:03:52;101357.03;;;17.74;100.00
55077;BME280;40971;44.702;11.030;2022-08-25T04:06:18;101298.78;;;17.28;100.00
55077;BME280;40971;44.702;11.030;2022-08-25T04:08:44;101350.72;;;17.64;100.00
55077;BME280;40971;44.702;11.030;2022-08-25T04:11:19;101355.00;;;17.78;100.00
55077;BME280;40971;44.702;11.030;2022-08-25T04:13:46;101352.25;;;17.80;100.00
55077;BME280;40971;44.702;11.030;2022-08-25T04:18:39;101334.03;;;17.64;100.00
55077;BME280;40971;44.702;11.030;2022-08-25T04:21:06;101335.13;;;17.85;100.00
55077;BME280;40971;44.702;11.030;2022-08-25T04:23:33;101280.25;;;17.65;100.00
55077;BME280;40971;44.702;11.030;2022-08-25T04:25:59;101333.44;;;17.95;100.00
55077;BME280;40971;44.702;11.030;2022-08-25T04:28:24;101334.03;;;17.88;100.00
55077;BME280;40971;44.702;11.030;2022-08-25T04:30:50;101277.66;;;17.52;100.00
55077;BME280;40971;44.702;11.030;2022-08-25T04:33:15;101291.97;;;17.61;100.00
55077;BME280;40971;44.702;11.030;2022-08-25T04:35:46;101357.63;;;18.02;100.00
55077;BME280;40971;44.702;11.030;2022-08-25T04:38:12;101339.03;;;17.80;100.00
55077;BME280;40971;44.702;11.030;2022-08-25T04:40:37;101332.41;;;17.74;100.00
55077;BME280;40971;44.702;11.030;2022-08-25T04:43:02;101339.66;;;17.83;100.00
55077;BME280;40971;44.702;11.030;2022-08-25T04:45:28;101309.03;;;17.81;100.00
55077;BME280;40971;44.702;11.030;2022-08-25T04:47:53;101354.91;;;18.15;100.00
55077;BME280;40971;44.702;11.030;2022-08-25T04:50:22;101351.16;;;18.06;100.00
55077;BME280;40971;44.702;11.030;2022-08-25T04:52:47;101281.66;;;17.58;100.00
55077;BME280;40971;44.702;11.030;2022-08-25T04:55:13;101349.94;;;18.10;100.00
55077;BME280;40971;44.702;11.030;2022-08-25T04:57:39;101353.56;;;18.09;100.00
55077;BME280;40971;44.702;11.030;2022-08-25T05:00:05;101344.53;;;18.00;100.00
55077;BME280;40971;44.702;11.030;2022-08-25T05:02:31;101357.66;;;18.13;100.00
55077;BME280;40971;44.702;11.030;2022-08-25T05:04:56;101236.63;;;17.48;100.00
55077;BME280;40971;44.702;11.030;2022-08-25T05:07:22;101362.41;;;18.43;100.00
55077;BME280;40971;44.702;11.030;2022-08-25T05:09:47;101345.34;;;18.47;100.00
55077;BME280;40971;44.702;11.030;2022-08-25T05:12:13;101359.72;;;18.67;100.00
55077;BME280;40971;44.702;11.030;2022-08-25T05:14:38;101347.03;;;18.59;100.00
55077;BME280;40971;44.702;11.030;2022-08-25T05:17:04;101349.38;;;18.75;100.00
55077;BME280;40971;44.702;11.030;2022-08-25T05:19:29;101352.03;;;18.86;100.00
55077;BME280;40971;44.702;11.030;2022-08-25T05:21:55;101342.28;;;18.98;100.00
55077;BME280;40971;44.702;11.030;2022-08-25T05:24:20;101265.75;;;18.61;100.00
55077;BME280;40971;44.702;11.030;2022-08-25T05:26:46;101346.09;;;19.16;100.00
55077;BME280;40971;44.702;11.030;2022-08-25T05:29:12;101326.94;;;19.24;100.00
55077;BME280;40971;44.702;11.030;2022-08-25T05:31:38;101330.75;;;19.42;100.00
55077;BME280;40971;44.702;11.030;2022-08-25T05:34:06;101326.16;;;19.56;100.00
55077;BME280;40971;44.702;11.030;2022-08-25T05:36:32;101308.78;;;19.63;100.00
55077;BME280;40971;44.702;11.030;2022-08-25T05:38:58;101332.81;;;19.82;100.00
55077;BME280;40971;44.702;11.030;2022-08-25T05:41:28;101261.47;;;19.47;100.00
55077;BME280;40971;44.702;11.030;2022-08-25T05:43:55;101327.41;;;20.04;99.76
55077;BME280;40971;44.702;11.030;2022-08-25T05:46:21;101261.44;;;19.69;99.58
55077;BME280;40971;44.702;11.030;2022-08-25T05:48:47;101339.22;;;20.21;97.78
55077;BME280;40971;44.702;11.030;2022-08-25T05:51:13;101329.06;;;20.26;97.31
55077;BME280;40971;44.702;11.030;2022-08-25T05:53:42;101332.34;;;20.39;96.58
55077;BME280;40971;44.702;11.030;2022-08-25T05:56:09;101276.97;;;20.25;94.06
55077;BME280;40971;44.702;11.030;2022-08-25T05:58:35;101331.09;;;20.64;93.45
55077;BME280;40971;44.702;11.030;2022-08-25T06:01:01;101216.66;;;19.97;93.01
55077;BME280;40971;44.702;11.030;2022-08-25T06:03:46;101280.88;;;20.42;93.28
55077;BME280;40971;44.702;11.030;2022-08-25T06:06:12;101328.09;;;20.79;90.96
55077;BME280;40971;44.702;11.030;2022-08-25T06:08:38;101262.94;;;20.65;88.33
55077;BME280;40971;44.702;11.030;2022-08-25T06:11:05;101330.56;;;21.11;88.63
55077;BME280;40971;44.702;11.030;2022-08-25T06:13:31;101332.09;;;21.13;87.16
55077;BME280;40971;44.702;11.030;2022-08-25T06:15:58;101329.91;;;21.18;86.55
55077;BME280;40971;44.702;11.030;2022-08-25T06:18:26;101315.28;;;21.43;85.03
55077;BME280;40971;44.702;11.030;2022-08-25T06:20:54;101317.13;;;21.52;85.32
55077;BME280;40971;44.702;11.030;2022-08-25T06:23:20;101312.75;;;21.42;84.45
55077;BME280;40971;44.702;11.030;2022-08-25T06:25:52;101270.06;;;21.24;81.97
55077;BME280;40971;44.702;11.030;2022-08-25T06:28:19;101256.78;;;21.24;84.17
55077;BME280;40971;44.702;11.030;2022-08-25T06:30:46;101329.56;;;21.90;81.88
55077;BME280;40971;44.702;11.030;2022-08-25T06:33:12;101266.75;;;21.70;79.59
55077;BME280;40971;44.702;11.030;2022-08-25T06:35:42;101328.28;;;22.04;79.54
55077;BME280;40971;44.702;11.030;2022-08-25T06:38:08;101311.63;;;21.92;80.57
55077;BME280;40971;44.702;11.030;2022-08-25T06:40:34;101316.81;;;22.04;80.84
55077;BME280;40971;44.702;11.030;2022-08-25T06:43:00;101324.88;;;22.31;79.05
55077;BME280;40971;44.702;11.030;2022-08-25T06:45:25;101258.38;;;22.31;76.96
55077;BME280;40971;44.702;11.030;2022-08-25T06:47:51;101327.16;;;23.00;75.35
55077;BME280;40971;44.702;11.030;2022-08-25T06:50:17;101320.44;;;23.24;73.58
55077;BME280;40971;44.702;11.030;2022-08-25T06:52:42;101323.56;;;23.19;75.01
55077;BME280;40971;44.702;11.030;2022-08-25T06:55:08;101321.34;;;23.32;73.46
55077;BME280;40971;44.702;11.030;2022-08-25T06:57:34;101288.63;;;23.22;74.02
55077;BME280;40971;44.702;11.030;2022-08-25T07:00:02;101314.25;;;23.68;71.64
55077;BME280;40971;44.702;11.030;2022-08-25T07:02:28;101248.78;;;23.56;70.14
55077;BME280;40971;44.702;11.030;2022-08-25T07:04:53;101313.16;;;24.23;70.65
55077;BME280;40971;44.702;11.030;2022-08-25T07:07:19;101251.88;;;24.13;66.75
55077;BME280;40971;44.702;11.030;2022-08-25T07:09:45;101312.00;;;24.85;67.31
55077;BME280;40971;44.702;11.030;2022-08-25T07:12:11;101301.63;;;25.33;64.40
55077;BME280;40971;44.702;11.030;2022-08-25T07:14:36;101196.03;;;25.04;62.98
55077;BME280;40971;44.702;11.030;2022-08-25T07:17:02;101312.06;;;26.09;60.63
55077;BME280;40971;44.702;11.030;2022-08-25T07:19:28;101314.34;;;26.45;59.83
55077;BME280;40971;44.702;11.030;2022-08-25T07:21:53;101254.50;;;26.21;58.43
55077;BME280;40971;44.702;11.030;2022-08-25T07:24:19;101312.03;;;26.81;54.53
55077;BME280;40971;44.702;11.030;2022-08-25T07:26:45;101298.47;;;26.82;54.68
55077;BME280;40971;44.702;11.030;2022-08-25T07:29:24;101309.78;;;27.01;55.19
55077;BME280;40971;44.702;11.030;2022-08-25T07:31:51;101294.44;;;27.17;53.08
55077;BME280;40971;44.702;11.030;2022-08-25T07:34:16;101308.56;;;27.42;51.75
55077;BME280;40971;44.702;11.030;2022-08-25T07:37:00;101261.94;;;27.66;51.79
55077;BME280;40971;44.702;11.030;2022-08-25T07:39:28;101299.50;;;28.04;49.46
55077;BME280;40971;44.702;11.030;2022-08-25T07:41:54;101306.53;;;27.90;49.37
55077;BME280;40971;44.702;11.030;2022-08-25T07:44:21;101316.97;;;28.37;48.14
55077;BME280;40971;44.702;11.030;2022-08-25T07:46:47;101310.94;;;28.80;46.30
55077;BME280;40971;44.702;11.030;2022-08-25T07:49:13;101309.28;;;28.79;46.49
55077;BME280;40971;44.702;11.030;2022-08-25T07:51:38;101293.34;;;28.92;44.30
55077;BME280;40971;44.702;11.030;2022-08-25T07:54:04;101264.03;;;28.67;44.56
55077;BME280;40971;44.702;11.030;2022-08-25T07:56:30;101303.88;;;29.08;44.32
55077;BME280;40971;44.702;11.030;2022-08-25T07:58:55;101274.97;;;29.38;44.48
55077;BME280;40971;44.702;11.030;2022-08-25T08:01:22;101293.50;;;29.69;44.29
55077;BME280;40971;44.702;11.030;2022-08-25T08:03:49;101288.84;;;30.06;43.61
55077;BME280;40971;44.702;11.030;2022-08-25T08:06:17;101285.06;;;30.00;44.15
55077;BME280;40971;44.702;11.030;2022-08-25T08:08:46;101296.63;;;30.57;42.24
55077;BME280;40971;44.702;11.030;2022-08-25T08:11:21;101287.06;;;30.95;41.60
55077;BME280;40971;44.702;11.030;2022-08-25T08:13:48;101294.28;;;30.88;40.79
55077;BME280;40971;44.702;11.030;2022-08-25T08:16:16;101234.31;;;30.32;41.77
55077;BME280;40971;44.702;11.030;2022-08-25T08:18:43;101237.50;;;30.07;41.79
55077;BME280;40971;44.702;11.030;2022-08-25T08:23:43;101288.13;;;31.01;40.00
55077;BME280;40971;44.702;11.030;2022-08-25T08:26:08;101284.16;;;30.97;38.85
55077;BME280;40971;44.702;11.030;2022-08-25T08:28:37;101272.44;;;31.31;38.59
55077;BME280;40971;44.702;11.030;2022-08-25T08:31:02;101284.06;;;31.31;37.86
55077;BME280;40971;44.702;11.030;2022-08-25T08:33:28;101277.44;;;31.67;38.50
55077;BME280;40971;44.702;11.030;2022-08-25T08:36:14;101287.00;;;32.02;36.50
55077;BME280;40971;44.702;11.030;2022-08-25T08:38:41;101267.50;;;31.81;36.74
55077;BME280;40971;44.702;11.030;2022-08-25T08:47:25;101276.22;;;30.75;39.52
55077;BME280;40971;44.702;11.030;2022-08-25T08:52:43;101269.28;;;30.60;39.50
55077;BME280;40971;44.702;11.030;2022-08-25T08:55:33;101168.16;;;30.83;39.05
55077;BME280;40971;44.702;11.030;2022-08-25T08:58:08;101264.06;;;32.25;37.94
55077;BME280;40971;44.702;11.030;2022-08-25T09:00:39;101269.06;;;32.41;38.15
55077;BME280;40971;44.702;11.030;2022-08-25T09:03:09;101192.47;;;31.89;37.27
55077;BME280;40971;44.702;11.030;2022-08-25T09:05:49;101241.06;;;32.02;37.16
55077;BME280;40971;44.702;11.030;2022-08-25T09:08:16;101260.66;;;32.63;37.87
55077;BME280;40971;44.702;11.030;2022-08-25T09:16:25;101250.38;;;32.20;39.17
55077;BME280;40971;44.702;11.030;2022-08-25T09:21:56;101254.09;;;32.39;39.06
55077;BME280;40971;44.702;11.030;2022-08-25T09:29:58;101252.44;;;32.24;38.36
55077;BME280;40971;44.702;11.030;2022-08-25T09:32:27;101241.00;;;32.42;38.38
55077;BME280;40971;44.702;11.030;2022-08-25T09:34:53;101214.31;;;32.52;36.61
55077;BME280;40971;44.702;11.030;2022-08-25T09:37:21;101231.72;;;33.08;37.72
55077;BME280;40971;44.702;11.030;2022-08-25T09:39:47;101230.13;;;33.25;37.11
55077;BME280;40971;44.702;11.030;2022-08-25T09:42:13;101230.25;;;33.43;36.07
55077;BME280;40971;44.702;11.030;2022-08-25T09:44:43;101241.06;;;33.12;36.30
55077;BME280;40971;44.702;11.030;2022-08-25T09:47:25;101235.47;;;33.07;37.53
55077;BME280;40971;44.702;11.030;2022-08-25T09:54:59;101234.25;;;33.03;35.28
55077;BME280;40971;44.702;11.030;2022-08-25T09:57:54;101231.50;;;33.41;36.47
55077;BME280;40971;44.702;11.030;2022-08-25T10:03:12;101240.78;;;33.52;35.61
55077;BME280;40971;44.702;11.030;2022-08-25T10:08:21;101235.94;;;33.35;37.02
55077;BME280;40971;44.702;11.030;2022-08-25T10:10:53;101236.91;;;33.91;36.27
55077;BME280;40971;44.702;11.030;2022-08-25T10:13:40;101222.16;;;33.87;35.90
55077;BME280;40971;44.702;11.030;2022-08-25T10:16:25;101174.72;;;33.34;35.28
55077;BME280;40971;44.702;11.030;2022-08-25T10:21:38;101229.75;;;32.39;38.88
55077;BME280;40971;44.702;11.030;2022-08-25T10:24:04;101222.53;;;32.19;38.38
55077;BME280;40971;44.702;11.030;2022-08-25T10:26:47;101214.16;;;32.47;40.94
55077;BME280;40971;44.702;11.030;2022-08-25T10:32:15;101212.38;;;33.36;38.18
55077;BME280;40971;44.702;11.030;2022-08-25T10:34:53;101210.88;;;33.40;37.77
55077;BME280;40971;44.702;11.030;2022-08-25T10:40:28;101192.31;;;33.68;37.24
55077;BME280;40971;44.702;11.030;2022-08-25T10:43:05;101185.16;;;32.61;37.61
55077;BME280;40971;44.702;11.030;2022-08-25T10:45:56;101176.06;;;32.49;39.31
55077;BME280;40971;44.702;11.030;2022-08-25T10:54:16;101189.00;;;33.41;36.54
55077;BME280;40971;44.702;11.030;2022-08-25T11:05:05;101167.56;;;32.45;37.24
55077;BME280;40971;44.702;11.030;2022-08-25T11:07:35;101164.16;;;32.56;38.50
55077;BME280;40971;44.702;11.030;2022-08-25T11:10:10;101156.00;;;32.31;38.63
55077;BME280;40971;44.702;11.030;2022-08-25T11:12:45;101155.66;;;32.91;40.85
55077;BME280;40971;44.702;11.030;2022-08-25T11:15:19;101156.19;;;33.74;38.51
55077;BME280;40971;44.702;11.030;2022-08-25T11:18:06;101156.00;;;34.13;37.17
55077;BME280;40971;44.702;11.030;2022-08-25T11:21:01;101158.59;;;34.37;36.88
55077;BME280;40971;44.702;11.030;2022-08-25T11:23:34;101158.31;;;34.09;36.44
55077;BME280;40971;44.702;11.030;2022-08-25T11:26:07;101159.84;;;34.83;36.77
55077;BME280;40971;44.702;11.030;2022-08-25T11:31:08;101139.09;;;34.29;35.63
55077;BME280;40971;44.702;11.030;2022-08-25T11:33:34;101091.69;;;33.83;36.24
55077;BME280;40971;44.702;11.030;2022-08-25T11:36:31;101148.22;;;33.61;36.85
55077;BME280;40971;44.702;11.030;2022-08-25T11:39:06;101139.25;;;32.86;38.35
55077;BME280;40971;44.702;11.030;2022-08-25T11:50:21;101130.88;;;32.56;39.07
55077;BME280;40971;44.702;11.030;2022-08-25T11:52:53;101128.19;;;33.44;37.16
55077;BME280;40971;44.702;11.030;2022-08-25T11:58:48;101128.94;;;33.69;36.11
55077;BME280;40971;44.702;11.030;2022-08-25T12:02:17;101132.56;;;32.88;36.72
55077;BME280;40971;44.702;11.030;2022-08-25T12:04:37;101134.50;;;32.81;37.16
55077;BME280;40971;44.702;11.030;2022-08-25T12:09:32;101126.31;;;33.63;36.35
55077;BME280;40971;44.702;11.030;2022-08-25T12:18:15;101122.50;;;35.20;34.21
55077;BME280;40971;44.702;11.030;2022-08-25T12:28:50;101119.63;;;34.02;35.11
55077;BME280;40971;44.702;11.030;2022-08-25T12:31:30;101112.03;;;34.41;35.02
55077;BME280;40971;44.702;11.030;2022-08-25T12:34:35;101121.75;;;34.00;33.77
55077;BME280;40971;44.702;11.030;2022-08-25T12:37:12;101108.91;;;34.44;36.07
55077;BME280;40971;44.702;11.030;2022-08-25T12:42:30;101107.25;;;34.24;35.08
55077;BME280;40971;44.702;11.030;2022-08-25T12:47:46;101045.56;;;34.38;35.42
55077;BME280;40971;44.702;11.030;2022-08-25T12:50:34;101101.03;;;34.05;34.50
55077;BME280;40971;44.702;11.030;2022-08-25T12:53:11;101044.25;;;33.62;34.52
55077;BME280;40971;44.702;11.030;2022-08-25T12:55:43;101094.56;;;34.06;35.25
55077;BME280;40971;44.702;11.030;2022-08-25T12:58:11;101100.28;;;33.18;35.59
55077;BME280;40971;44.702;11.030;2022-08-25T13:00:57;101097.28;;;33.27;35.93
55077;BME280;40971;44.702;11.030;2022-08-25T13:03:50;101100.56;;;33.54;35.78
55077;BME280;40971;44.702;11.030;2022-08-25T13:09:32;101088.69;;;33.73;35.90
55077;BME280;40971;44.702;11.030;2022-08-25T13:14:40;101084.13;;;34.22;34.25
55077;BME280;40971;44.702;11.030;2022-08-25T13:17:07;101069.41;;;34.48;32.82
55077;BME280;40971;44.702;11.030;2022-08-25T13:19:32;101069.44;;;34.71;32.66
55077;BME280;40971;44.702;11.030;2022-08-25T13:22:02;101075.22;;;34.75;33.13
55077;BME280;40971;44.702;11.030;2022-08-25T13:24:39;101069.50;;;35.06;32.37
55077;BME280;40971;44.702;11.030;2022-08-25T13:27:08;101010.13;;;35.10;32.87
55077;BME280;40971;44.702;11.030;2022-08-25T13:29:50;101070.78;;;35.27;33.95
55077;BME280;40971;44.702;11.030;2022-08-25T13:32:27;101063.63;;;34.44;34.07
55077;BME280;40971;44.702;11.030;2022-08-25T13:35:11;101069.63;;;34.16;35.82
55077;BME280;40971;44.702;11.030;2022-08-25T13:37:38;100978.94;;;34.00;34.04
55077;BME280;40971;44.702;11.030;2022-08-25T13:40:21;101059.53;;;34.77;34.64
55077;BME280;40971;44.702;11.030;2022-08-25T13:42:50;101013.41;;;34.12;33.27
55077;BME280;40971;44.702;11.030;2022-08-25T13:45:24;101068.97;;;34.02;35.88
55077;BME280;40971;44.702;11.030;2022-08-25T13:47:51;101045.91;;;34.42;33.47
55077;BME280;40971;44.702;11.030;2022-08-25T13:55:34;101049.66;;;35.06;33.06
55077;BME280;40971;44.702;11.030;2022-08-25T13:58:01;101035.28;;;35.05;33.96
55077;BME280;40971;44.702;11.030;2022-08-25T14:00:41;101035.75;;;35.77;32.01
55077;BME280;40971;44.702;11.030;2022-08-25T14:03:28;101031.69;;;35.51;33.11
55077;BME280;40971;44.702;11.030;2022-08-25T14:08:42;101039.69;;;35.58;33.10
55077;BME280;40971;44.702;11.030;2022-08-25T14:16:26;100983.41;;;34.36;33.30
55077;BME280;40971;44.702;11.030;2022-08-25T14:18:54;101031.44;;;34.59;33.50
55077;BME280;40971;44.702;11.030;2022-08-25T14:21:25;101023.78;;;34.56;33.74
55077;BME280;40971;44.702;11.030;2022-08-25T14:23:52;101032.47;;;35.12;33.77
55077;BME280;40971;44.702;11.030;2022-08-25T14:26:18;101021.09;;;35.50;33.41
55077;BME280;40971;44.702;11.030;2022-08-25T14:28:43;101027.81;;;35.47;32.72
55077;BME280;40971;44.702;11.030;2022-08-25T14:31:25;100982.72;;;34.76;33.67
55077;BME280;40971;44.702;11.030;2022-08-25T14:34:01;101026.75;;;34.78;35.01
55077;BME280;40971;44.702;11.030;2022-08-25T14:36:29;100997.25;;;34.70;35.55
55077;BME280;40971;44.702;11.030;2022-08-25T14:38:55;101017.06;;;35.41;33.78
55077;BME280;40971;44.702;11.030;2022-08-25T14:41:22;101012.97;;;36.07;33.46
55077;BME280;40971;44.702;11.030;2022-08-25T14:43:48;101009.75;;;36.10;31.40
55077;BME280;40971;44.702;11.030;2022-08-25T14:46:25;101015.66;;;35.50;32.21